createdAt,value
2019-02-06T00:01:08.740Z,2.02
2019-02-06T00:03:39.256Z,2.07
2019-02-06T00:06:09.044Z,2.08
2019-02-06T00:08:39.137Z,2.08
2019-02-06T00:11:08.942Z,2.08
2019-02-06T00:13:39.496Z,2.16
2019-02-06T00:16:09.233Z,2.20
2019-02-06T00:18:41.521Z,2.20
2019-02-06T00:21:11.759Z,2.09
2019-02-06T00:23:41.628Z,2.13
2019-02-06T00:26:11.261Z,2.13
2019-02-06T00:28:42.893Z,2.15
2019-02-06T00:31:12.702Z,2.18
2019-02-06T00:33:43.410Z,2.18
2019-02-06T00:36:13.206Z,2.19
2019-02-06T00:38:43.361Z,2.19
2019-02-06T00:41:13.197Z,2.16
2019-02-06T00:43:43.172Z,2.17
2019-02-06T00:46:13.039Z,2.19
2019-02-06T00:48:43.074Z,2.16
2019-02-06T00:51:12.831Z,2.18
2019-02-06T00:53:43.081Z,2.18
2019-02-06T00:56:13.046Z,2.23
2019-02-06T00:58:44.380Z,2.23
2019-02-06T01:01:14.088Z,2.10
2019-02-06T01:03:46.999Z,2.11
2019-02-06T01:06:16.794Z,2.11
2019-02-06T01:08:46.799Z,2.11
2019-02-06T01:11:16.603Z,2.20
2019-02-06T01:13:49.498Z,2.09
2019-02-06T01:16:19.322Z,2.06
2019-02-06T01:18:49.263Z,2.09
2019-02-06T01:21:19.399Z,2.11
2019-02-06T01:23:49.563Z,2.14
2019-02-06T01:26:19.385Z,2.14
2019-02-06T01:28:49.241Z,2.06
2019-02-06T01:31:22.825Z,2.10
2019-02-06T01:33:52.817Z,2.10
2019-02-06T01:36:23.093Z,2.06
2019-02-06T01:38:55.811Z,2.02
2019-02-06T01:41:25.634Z,1.99
2019-02-06T01:43:55.446Z,1.99
2019-02-06T01:46:25.377Z,1.96
2019-02-06T01:48:56.785Z,1.87
2019-02-06T01:51:26.896Z,1.86
2019-02-06T01:53:58.690Z,1.86
2019-02-06T01:56:28.619Z,1.81
2019-02-06T01:58:58.535Z,1.83
2019-02-06T02:01:29.126Z,1.84
2019-02-06T02:03:59.565Z,1.84
2019-02-06T02:06:29.205Z,1.79
2019-02-06T02:09:02.247Z,1.80
2019-02-06T02:11:31.998Z,1.78
2019-02-06T02:14:02.765Z,1.80
2019-02-06T02:16:32.693Z,1.79
2019-02-06T02:19:02.668Z,1.79
2019-02-06T02:21:32.403Z,1.66
2019-02-06T02:24:02.184Z,1.66
2019-02-06T02:26:32.213Z,1.75
2019-02-06T02:29:01.942Z,1.78
2019-02-06T02:31:31.519Z,1.66
2019-02-06T02:34:01.394Z,1.65
2019-02-06T02:36:31.234Z,1.65
2019-02-06T02:39:00.984Z,1.67
2019-02-06T02:41:31.026Z,1.72
2019-02-06T02:44:00.790Z,1.64
2019-02-06T02:46:30.648Z,1.67
2019-02-06T02:49:03.373Z,1.55
2019-02-06T02:51:33.044Z,1.55
2019-02-06T02:54:02.572Z,1.57
2019-02-06T02:56:32.810Z,1.56
2019-02-06T02:59:02.787Z,1.55
2019-02-06T03:01:58.140Z,1.55
2019-02-06T03:04:37.876Z,1.49
2019-02-06T03:07:07.796Z,1.59
2019-02-06T03:09:37.649Z,1.59
2019-02-06T03:12:07.459Z,1.51
2019-02-06T03:14:37.107Z,1.51
2019-02-06T03:17:07.205Z,1.55
2019-02-06T03:19:37.340Z,1.51
2019-02-06T03:22:07.262Z,1.50
2019-02-06T03:24:37.254Z,1.50
2019-02-06T03:27:07.500Z,1.51
2019-02-06T03:29:37.457Z,1.59
2019-02-06T03:32:07.261Z,1.53
2019-02-06T03:34:36.645Z,1.53
2019-02-06T03:37:06.478Z,1.49
2019-02-06T03:39:38.083Z,1.52
2019-02-06T03:42:07.784Z,1.54
2019-02-06T03:44:39.079Z,1.55
2019-02-06T03:47:08.631Z,1.53
2019-02-06T03:49:38.149Z,1.53
2019-02-06T03:52:07.713Z,1.53
2019-02-06T03:54:37.062Z,1.54
2019-02-06T03:57:09.814Z,1.57
2019-02-06T03:59:39.318Z,1.48
2019-02-06T04:02:12.429Z,1.43
2019-02-06T04:04:43.018Z,1.46
2019-02-06T04:07:13.388Z,1.46
2019-02-06T04:09:44.507Z,1.52
2019-02-06T04:12:14.140Z,1.52
2019-02-06T04:14:43.765Z,1.52
2019-02-06T04:17:14.457Z,1.44
2019-02-06T04:19:44.669Z,1.56
2019-02-06T04:22:14.081Z,1.61
2019-02-06T04:24:43.674Z,1.61
2019-02-06T04:27:17.057Z,1.58
2019-02-06T04:29:49.549Z,1.54
2019-02-06T04:32:18.930Z,1.54
2019-02-06T04:34:51.607Z,1.61
2019-02-06T04:37:22.644Z,1.63
2019-02-06T04:39:53.481Z,1.63
2019-02-06T04:42:23.001Z,1.65
2019-02-06T04:44:55.764Z,1.64
2019-02-06T04:47:25.402Z,1.56
2019-02-06T04:49:57.813Z,1.60
2019-02-06T04:52:30.747Z,1.64
2019-02-06T04:55:00.469Z,1.57
2019-02-06T04:57:30.104Z,1.53
2019-02-06T05:00:00.360Z,1.55
2019-02-06T05:02:29.850Z,1.62
2019-02-06T05:04:59.443Z,1.62
2019-02-06T05:07:31.354Z,1.65
2019-02-06T05:10:00.854Z,1.59
2019-02-06T05:12:30.463Z,1.59
2019-02-06T05:15:00.773Z,1.61
2019-02-06T05:17:30.258Z,1.65
2019-02-06T05:20:03.192Z,1.63
2019-02-06T05:22:32.767Z,1.57
2019-02-06T05:25:02.338Z,1.49
2019-02-06T05:27:32.304Z,1.50
2019-02-06T05:30:03.851Z,1.49
2019-02-06T05:32:35.559Z,1.47
2019-02-06T05:35:05.236Z,1.47
2019-02-06T05:37:34.843Z,1.46
2019-02-06T05:40:04.519Z,1.50
2019-02-06T05:42:35.492Z,1.47
2019-02-06T05:45:05.531Z,1.43
2019-02-06T05:47:37.714Z,1.49
2019-02-06T05:50:08.275Z,1.50
2019-02-06T05:52:41.458Z,1.50
2019-02-06T05:55:11.224Z,1.48
2019-02-06T05:57:43.802Z,1.52
2019-02-06T06:00:20.297Z,1.50
2019-02-06T06:02:49.701Z,1.45
2019-02-06T06:05:19.657Z,1.49
2019-02-06T06:07:49.170Z,1.49
2019-02-06T06:10:18.899Z,1.47
2019-02-06T06:12:49.370Z,1.44
2019-02-06T06:15:20.660Z,1.44
2019-02-06T06:17:51.929Z,1.46
2019-02-06T06:20:21.669Z,1.42
2019-02-06T06:22:51.330Z,1.39
2019-02-06T06:25:21.073Z,1.39
2019-02-06T06:27:51.383Z,1.42
2019-02-06T06:30:22.123Z,1.45
2019-02-06T06:32:52.392Z,1.52
2019-02-06T06:35:22.305Z,1.52
2019-02-06T06:37:59.492Z,1.50
2019-02-06T06:40:23.519Z,1.47
2019-02-06T06:42:53.031Z,1.45
2019-02-06T06:45:23.662Z,1.44
2019-02-06T06:47:53.284Z,1.53
2019-02-06T06:50:26.357Z,1.48
2019-02-06T06:52:56.738Z,1.52
2019-02-06T06:55:27.784Z,1.42
2019-02-06T06:57:57.677Z,1.41
2019-02-06T07:00:28.886Z,1.39
2019-02-06T07:02:58.486Z,1.39
2019-02-06T07:05:32.135Z,1.36
2019-02-06T07:08:09.287Z,1.36
2019-02-06T07:10:33.169Z,1.39
2019-02-06T07:13:03.214Z,1.39
2019-02-06T07:15:34.383Z,1.46
2019-02-06T07:18:04.338Z,1.47
2019-02-06T07:20:33.853Z,1.47
2019-02-06T07:23:03.583Z,1.46
2019-02-06T07:25:36.104Z,1.40
2019-02-06T07:28:05.704Z,1.49
2019-02-06T07:30:36.446Z,1.47
2019-02-06T07:33:06.395Z,1.57
2019-02-06T07:35:38.094Z,1.63
2019-02-06T07:38:07.750Z,1.63
2019-02-06T07:40:37.162Z,1.63
2019-02-06T07:43:06.581Z,1.75
2019-02-06T07:45:36.225Z,1.85
2019-02-06T07:48:05.653Z,1.78
2019-02-06T07:50:37.004Z,1.76
2019-02-06T07:53:06.674Z,1.76
2019-02-06T07:55:39.771Z,1.88
2019-02-06T07:58:09.309Z,1.92
2019-02-06T08:00:39.729Z,1.94
2019-02-06T08:03:09.174Z,1.94
2019-02-06T08:05:39.209Z,2.08
2019-02-06T08:08:08.706Z,2.12
2019-02-06T08:10:38.167Z,2.17
2019-02-06T08:13:07.488Z,2.29
2019-02-06T08:15:36.858Z,2.19
2019-02-06T08:18:07.254Z,2.30
2019-02-06T08:20:39.115Z,2.43
2019-02-06T08:23:08.541Z,2.45
2019-02-06T08:25:38.989Z,2.48
2019-02-06T08:28:09.511Z,2.58
2019-02-06T08:30:41.095Z,2.62
2019-02-06T08:33:10.711Z,2.62
2019-02-06T08:35:40.229Z,2.68
2019-02-06T08:38:10.086Z,2.75
2019-02-06T08:40:42.595Z,2.85
2019-02-06T08:43:12.028Z,2.85
2019-02-06T08:45:44.477Z,2.87
2019-02-06T08:48:14.175Z,2.94
2019-02-06T08:50:43.622Z,2.99
2019-02-06T08:53:22.750Z,3.08
2019-02-06T08:55:52.797Z,3.03
2019-02-06T08:58:23.080Z,3.03
2019-02-06T09:00:54.101Z,3.13
2019-02-06T09:03:29.361Z,3.11
2019-02-06T09:06:00.280Z,3.28
2019-02-06T09:08:29.677Z,3.29
2019-02-06T09:10:59.167Z,3.42
2019-02-06T09:13:29.032Z,3.42
2019-02-06T09:15:58.666Z,3.50
2019-02-06T09:18:30.134Z,3.55
2019-02-06T09:21:01.437Z,3.55
2019-02-06T09:23:30.841Z,3.58
2019-02-06T09:26:01.122Z,3.64
2019-02-06T09:28:31.365Z,3.68
2019-02-06T09:31:01.154Z,3.72
2019-02-06T09:33:30.581Z,3.72
2019-02-06T09:35:59.994Z,3.75
2019-02-06T09:38:29.337Z,3.90
2019-02-06T09:40:59.066Z,3.76
2019-02-06T09:43:28.662Z,3.76
2019-02-06T09:45:58.227Z,3.92
2019-02-06T09:48:27.808Z,3.73
2019-02-06T09:50:57.518Z,3.85
2019-02-06T09:53:26.902Z,3.85
2019-02-06T09:55:56.454Z,3.94
2019-02-06T09:58:28.877Z,3.94
2019-02-06T10:00:59.432Z,3.94
2019-02-06T10:03:31.567Z,3.90
2019-02-06T10:06:01.434Z,3.90
2019-02-06T10:08:32.896Z,3.99
2019-02-06T10:11:03.080Z,3.99
2019-02-06T10:13:33.235Z,3.98
2019-02-06T10:16:03.913Z,4.10
2019-02-06T10:18:33.821Z,4.10
2019-02-06T10:21:04.046Z,4.05
2019-02-06T10:23:34.480Z,4.10
2019-02-06T10:26:04.559Z,4.30
2019-02-06T10:28:34.107Z,4.11
2019-02-06T10:31:03.487Z,4.28
2019-02-06T10:33:33.359Z,4.26
2019-02-06T10:36:03.649Z,4.26
2019-02-06T10:38:34.236Z,4.37
2019-02-06T10:41:04.930Z,4.37
2019-02-06T10:43:35.873Z,4.51
2019-02-06T10:46:07.768Z,4.51
2019-02-06T10:48:37.335Z,4.73
2019-02-06T10:51:07.647Z,4.65
2019-02-06T10:53:37.380Z,4.65
2019-02-06T10:56:07.650Z,4.89
2019-02-06T10:58:40.187Z,4.78
2019-02-06T11:01:11.206Z,4.96
2019-02-06T11:03:42.727Z,5.02
2019-02-06T11:06:12.589Z,5.07
2019-02-06T11:08:43.635Z,5.28
2019-02-06T11:11:13.059Z,5.26
2019-02-06T11:13:42.689Z,5.30
2019-02-06T11:16:12.317Z,5.31
2019-02-06T11:18:44.381Z,5.31
2019-02-06T11:21:12.938Z,5.37
2019-02-06T11:23:42.506Z,5.71
2019-02-06T11:26:11.876Z,5.60
2019-02-06T11:28:41.444Z,5.49
2019-02-06T11:31:10.937Z,5.49
2019-02-06T11:33:40.416Z,5.54
2019-02-06T11:36:09.948Z,5.63
2019-02-06T11:38:42.356Z,5.63
2019-02-06T11:41:12.083Z,5.71
2019-02-06T11:43:43.249Z,5.71
2019-02-06T11:46:12.876Z,5.80
2019-02-06T11:48:43.407Z,5.80
2019-02-06T11:51:13.124Z,5.55
2019-02-06T11:53:43.029Z,5.48
2019-02-06T11:56:12.469Z,5.49
2019-02-06T11:58:43.983Z,5.46
2019-02-06T12:01:46.996Z,5.46
2019-02-06T12:04:18.211Z,5.68
2019-02-06T12:06:48.161Z,5.68
2019-02-06T12:09:19.141Z,5.57
2019-02-06T12:11:48.562Z,5.64
2019-02-06T12:14:18.348Z,5.64
2019-02-06T12:16:48.126Z,5.82
2019-02-06T12:19:17.585Z,5.82
2019-02-06T12:21:49.793Z,5.75
2019-02-06T12:24:19.419Z,5.82
2019-02-06T12:26:49.251Z,5.94
2019-02-06T12:29:19.086Z,5.75
2019-02-06T12:31:54.485Z,5.90
2019-02-06T12:34:29.448Z,5.73
2019-02-06T12:37:00.782Z,5.87
2019-02-06T12:39:32.757Z,5.81
2019-02-06T12:42:02.762Z,5.87
2019-02-06T12:44:32.306Z,5.87
2019-02-06T12:47:02.049Z,5.89
2019-02-06T12:49:31.517Z,6.05
2019-02-06T12:52:01.261Z,6.10
2019-02-06T12:54:31.435Z,6.10
2019-02-06T12:57:00.886Z,6.23
2019-02-06T12:59:30.337Z,6.18
2019-02-06T13:02:00.563Z,6.37
2019-02-06T13:04:30.123Z,6.37
2019-02-06T13:07:00.295Z,6.33
2019-02-06T13:09:31.557Z,6.39
2019-02-06T13:12:00.974Z,6.58
2019-02-06T13:14:30.737Z,6.67
2019-02-06T13:17:00.144Z,6.67
2019-02-06T13:19:29.585Z,6.68
2019-02-06T13:21:59.463Z,6.81
2019-02-06T13:24:32.138Z,6.60
2019-02-06T13:27:02.010Z,6.68
2019-02-06T13:29:31.608Z,6.70
2019-02-06T13:32:01.635Z,6.78
2019-02-06T13:34:37.678Z,6.89
2019-02-06T13:37:07.525Z,6.85
2019-02-06T13:39:38.041Z,6.93
2019-02-06T13:42:07.354Z,6.93
2019-02-06T13:44:41.462Z,6.91
2019-02-06T13:47:10.869Z,6.91
2019-02-06T13:49:40.766Z,6.87
2019-02-06T13:52:10.238Z,6.93
2019-02-06T13:54:39.934Z,6.93
2019-02-06T13:57:09.337Z,6.88
2019-02-06T13:59:39.753Z,7.07
2019-02-06T14:02:09.118Z,6.93
2019-02-06T14:04:38.884Z,6.93
2019-02-06T14:07:09.121Z,7.08
2019-02-06T14:09:38.998Z,6.98
2019-02-06T14:12:08.422Z,6.98
2019-02-06T14:14:37.825Z,6.83
2019-02-06T14:17:08.419Z,6.86
2019-02-06T14:19:37.813Z,6.86
2019-02-06T14:22:09.892Z,6.94
2019-02-06T14:24:51.542Z,6.94
2019-02-06T14:28:01.742Z,6.97
2019-02-06T14:31:01.869Z,7.11
2019-02-06T14:33:46.769Z,7.25
2019-02-06T14:36:53.490Z,7.25
2019-02-06T14:39:51.177Z,6.95
2019-02-06T14:43:03.612Z,7.10
2019-02-06T14:46:20.230Z,6.92
2019-02-06T14:49:12.106Z,6.87
2019-02-06T14:52:34.499Z,6.87
2019-02-06T14:55:29.357Z,6.97
2019-02-06T14:58:50.504Z,6.97
2019-02-06T15:01:42.175Z,7.07
2019-02-06T15:04:39.841Z,6.99
2019-02-06T15:07:35.517Z,6.94
2019-02-06T15:10:33.497Z,6.94
2019-02-06T15:13:35.335Z,6.96
2019-02-06T15:16:27.783Z,6.93
2019-02-06T15:19:19.564Z,6.88
2019-02-06T15:22:07.171Z,6.82
2019-02-06T15:25:04.263Z,6.82
2019-02-06T15:28:06.868Z,6.75
2019-02-06T15:31:32.237Z,6.70
2019-02-06T15:34:53.571Z,6.61
2019-02-06T15:37:49.932Z,6.61
2019-02-06T15:41:02.700Z,6.52
2019-02-06T15:43:57.082Z,6.56
2019-02-06T15:47:06.107Z,6.61
2019-02-06T15:49:55.844Z,6.53
2019-02-06T15:52:49.413Z,6.61
2019-02-06T15:55:43.211Z,6.51
2019-02-06T15:58:49.455Z,6.67
2019-02-06T16:01:44.259Z,6.38
2019-02-06T16:05:20.237Z,6.45
2019-02-06T16:08:15.465Z,6.45
2019-02-06T16:11:22.924Z,6.43
2019-02-06T16:14:19.142Z,6.25
2019-02-06T16:17:29.909Z,6.29
2019-02-06T16:20:29.513Z,6.29
2019-02-06T16:23:20.044Z,6.19
2019-02-06T16:26:39.214Z,6.28
2019-02-06T16:30:00.074Z,6.28
2019-02-06T16:32:46.899Z,6.19
2019-02-06T16:35:52.149Z,6.19
2019-02-06T16:38:50.144Z,6.08
2019-02-06T16:41:56.845Z,6.31
2019-02-06T16:45:04.111Z,6.24
2019-02-06T16:48:13.497Z,6.28
2019-02-06T16:50:57.022Z,6.26
2019-02-06T16:54:19.528Z,6.12
2019-02-06T16:57:33.243Z,6.04
2019-02-06T17:00:26.560Z,5.97
2019-02-06T17:03:29.256Z,5.97
2019-02-06T17:06:28.447Z,5.93
2019-02-06T17:09:32.170Z,5.88
2019-02-06T17:12:29.551Z,5.81
2019-02-06T17:16:05.704Z,5.83
2019-02-06T17:19:05.928Z,5.83
2019-02-06T17:21:59.095Z,5.82
2019-02-06T17:25:02.973Z,5.82
2019-02-06T17:28:16.806Z,5.66
2019-02-06T17:31:32.567Z,5.66
2019-02-06T17:34:48.205Z,5.63
2019-02-06T17:37:47.612Z,5.63
2019-02-06T17:40:52.186Z,5.63
2019-02-06T17:43:49.835Z,5.50
2019-02-06T17:47:00.948Z,5.52
2019-02-06T17:50:00.137Z,5.57
2019-02-06T17:53:09.951Z,5.36
2019-02-06T17:55:39.298Z,5.36
2019-02-06T17:58:11.318Z,5.30
2019-02-06T18:00:47.773Z,5.50
2019-02-06T18:03:17.751Z,5.50
2019-02-06T18:05:50.252Z,5.31
2019-02-06T18:08:20.443Z,5.21
2019-02-06T18:10:53.378Z,5.37
2019-02-06T18:13:22.940Z,5.36
2019-02-06T18:15:52.875Z,5.36
2019-02-06T18:18:22.285Z,5.22
2019-02-06T18:20:52.434Z,5.29
2019-02-06T18:23:22.288Z,5.28
2019-02-06T18:25:55.686Z,5.28
2019-02-06T18:28:27.080Z,5.10
2019-02-06T18:30:56.851Z,5.01
2019-02-06T18:33:26.629Z,5.11
2019-02-06T18:35:56.702Z,5.11
2019-02-06T18:38:26.402Z,5.10
2019-02-06T18:40:56.377Z,5.17
2019-02-06T18:43:26.212Z,5.17
2019-02-06T18:45:56.049Z,5.12
2019-02-06T18:48:26.018Z,5.12
2019-02-06T18:50:55.844Z,5.13
2019-02-06T18:53:27.146Z,5.05
2019-02-06T18:55:59.089Z,4.98
2019-02-06T18:58:29.379Z,5.02
2019-02-06T19:00:59.406Z,5.02
2019-02-06T19:03:33.657Z,5.02
2019-02-06T19:06:06.122Z,5.06
2019-02-06T19:08:36.330Z,5.06
2019-02-06T19:11:06.106Z,5.07
2019-02-06T19:13:35.854Z,5.04
2019-02-06T19:16:05.331Z,5.02
2019-02-06T19:18:37.383Z,5.07
2019-02-06T19:21:10.754Z,5.07
2019-02-06T19:23:43.664Z,5.22
2019-02-06T19:26:13.319Z,5.22
2019-02-06T19:28:43.283Z,5.06
2019-02-06T19:31:18.093Z,5.19
2019-02-06T19:33:48.862Z,5.10
2019-02-06T19:36:21.200Z,4.95
2019-02-06T19:38:51.174Z,4.93
2019-02-06T19:41:23.261Z,5.04
2019-02-06T19:43:52.961Z,5.03
2019-02-06T19:46:23.062Z,5.03
2019-02-06T19:48:59.276Z,5.01
2019-02-06T19:51:31.757Z,5.11
2019-02-06T19:54:01.605Z,5.11
2019-02-06T19:56:31.334Z,5.05
2019-02-06T19:59:00.870Z,5.15
2019-02-06T20:01:32.206Z,4.99
2019-02-06T20:04:02.098Z,4.97
2019-02-06T20:06:32.893Z,5.09
2019-02-06T20:11:37.868Z,5.08
2019-02-06T20:14:07.666Z,5.51
2019-02-06T20:16:37.885Z,5.49
2019-02-06T20:19:08.478Z,5.13
2019-02-06T20:21:38.255Z,5.10
2019-02-06T20:24:08.084Z,5.10
2019-02-06T20:26:37.528Z,5.02
2019-02-06T20:29:08.690Z,5.02
2019-02-06T20:31:38.671Z,5.11
2019-02-06T20:34:08.558Z,5.05
2019-02-06T20:36:41.137Z,5.02
2019-02-06T20:39:12.340Z,5.11
2019-02-06T20:41:43.679Z,4.99
2019-02-06T20:44:14.211Z,5.04
2019-02-06T20:46:44.157Z,5.03
2019-02-06T20:49:13.839Z,5.03
2019-02-06T20:51:47.113Z,5.02
2019-02-06T20:54:21.538Z,4.91
2019-02-06T20:56:51.221Z,5.03
2019-02-06T20:59:24.133Z,4.95
2019-02-06T21:01:56.849Z,4.95
2019-02-06T21:04:26.451Z,4.95
2019-02-06T21:06:56.413Z,4.93
2019-02-06T21:09:28.179Z,4.86
2019-02-06T21:11:58.233Z,4.79
2019-02-06T21:14:29.032Z,4.77
2019-02-06T21:17:01.119Z,4.83
2019-02-06T21:19:31.936Z,4.75
2019-02-06T21:22:01.642Z,4.84
2019-02-06T21:24:31.648Z,4.82
2019-02-06T21:27:01.212Z,4.79
2019-02-06T21:29:31.387Z,4.66
2019-02-06T21:32:01.228Z,4.72
2019-02-06T21:34:32.395Z,4.72
2019-02-06T21:37:04.194Z,4.77
2019-02-06T21:39:36.575Z,4.74
2019-02-06T21:42:06.102Z,4.74
2019-02-06T21:44:37.859Z,4.69
2019-02-06T21:47:07.530Z,4.67
2019-02-06T21:49:39.696Z,4.75
2019-02-06T21:52:09.241Z,4.75
2019-02-06T21:54:42.017Z,4.56
2019-02-06T21:57:13.105Z,4.56
2019-02-06T21:59:54.601Z,4.54
2019-02-06T22:02:23.708Z,4.50
2019-02-06T22:04:53.475Z,4.49
2019-02-06T22:07:24.657Z,4.53
2019-02-06T22:09:57.918Z,4.53
2019-02-06T22:12:29.605Z,4.54
2019-02-06T22:15:00.315Z,4.55
2019-02-06T22:17:30.054Z,4.50
2019-02-06T22:20:03.084Z,4.50
2019-02-06T22:22:32.852Z,4.46
2019-02-06T22:25:03.465Z,4.53
2019-02-06T22:27:35.816Z,4.48
2019-02-06T22:30:08.015Z,4.48
2019-02-06T22:32:37.600Z,4.54
2019-02-06T22:35:11.961Z,4.41
2019-02-06T22:37:41.031Z,4.36
2019-02-06T22:40:13.197Z,4.36
2019-02-06T22:42:43.307Z,4.29
2019-02-06T22:45:17.361Z,4.29
2019-02-06T22:47:47.233Z,4.38
2019-02-06T22:50:18.179Z,4.32
2019-02-06T22:52:48.104Z,4.39
2019-02-06T22:55:19.948Z,4.37
2019-02-06T22:57:50.228Z,4.38
2019-02-06T23:00:59.241Z,4.38
2019-02-06T23:03:35.907Z,4.37
2019-02-06T23:06:07.181Z,4.25
2019-02-06T23:08:37.207Z,4.36
2019-02-06T23:11:08.677Z,4.38
2019-02-06T23:13:40.059Z,4.38
2019-02-06T23:16:10.114Z,4.45
2019-02-06T23:18:39.862Z,4.35
2019-02-06T23:21:09.821Z,4.35
2019-02-06T23:23:41.518Z,4.35
2019-02-06T23:26:11.233Z,4.33
2019-02-06T23:28:42.827Z,4.33
2019-02-06T23:31:12.417Z,4.39
2019-02-06T23:33:44.509Z,4.39
2019-02-06T23:36:17.335Z,4.41
2019-02-06T23:38:48.570Z,4.32
2019-02-06T23:41:18.536Z,4.32
2019-02-06T23:43:50.110Z,4.22
2019-02-06T23:46:22.277Z,4.38
2019-02-06T23:48:54.165Z,4.35
2019-02-06T23:51:23.739Z,4.30
2019-02-06T23:53:53.322Z,4.30
2019-02-06T23:56:23.060Z,4.35
2019-02-06T23:58:58.551Z,4.20
